Time;durP1;ratioP1;P1;durP2;ratioP2;P2;SDS_P1;SDS_P2;PMS_P1;PMS_P2;Temp;Humidity;BMP_temperature;BMP_pressure;BME280_temperature;BME280_humidity;BME280_pressure;Samples;Min_cycle;Max_cycle;Signal;HPM_P1;HPM_P2
2022/05/03 00:00:11;;;;;;;7.97;7.17;;;;;;;11.14;100.00;94975.97;5096722;28;20240;-60
2022/05/03 00:03:01;;;;;;;10.17;6.93;;;;;;;11.12;100.00;94972.88;5114273;28;20191;-59
2022/05/03 00:05:39;;;;;;;6.43;5.83;;;;;;;11.04;100.00;94960.53;5096234;28;20192;-60
2022/05/03 00:08:13;;;;;;;7.13;5.90;;;;;;;10.95;100.00;94954.81;5096073;28;20207;-60
2022/05/03 00:11:00;;;;;;;7.57;6.27;;;;;;;10.94;100.00;94956.78;5096195;28;20186;-66
2022/05/03 00:13:59;;;;;;;9.07;6.80;;;;;;;10.88;100.00;94965.84;5096672;28;20206;-64
2022/05/03 00:16:24;;;;;;;7.03;6.33;;;;;;;10.88;100.00;94957.66;5058617;28;20210;-65
2022/05/03 00:18:50;;;;;;;7.67;5.50;;;;;;;10.78;100.00;94961.34;5096210;28;20194;-66
2022/05/03 00:21:15;;;;;;;5.97;5.37;;;;;;;10.77;100.00;94966.03;5096184;28;20270;-66
2022/05/03 00:23:41;;;;;;;5.87;5.37;;;;;;;10.70;100.00;94949.00;5096491;28;20211;-65
2022/05/03 00:26:06;;;;;;;5.90;5.30;;;;;;;10.61;100.00;94946.00;5095948;28;20212;-64
2022/05/03 00:28:32;;;;;;;5.50;5.00;;;;;;;10.58;100.00;94952.28;5096397;28;20247;-56
2022/05/03 00:30:58;;;;;;;6.83;5.93;;;;;;;10.55;100.00;94944.94;5095871;28;20175;-63
2022/05/03 00:33:29;;;;;;;5.80;5.27;;;;;;;10.50;100.00;94946.19;5099492;28;20191;-55
2022/05/03 00:35:54;;;;;;;6.63;5.30;;;;;;;10.46;100.00;94939.22;5100127;28;20278;-56
2022/05/03 00:38:20;;;;;;;5.53;4.60;;;;;;;10.48;100.00;94942.34;5099951;28;20215;-58
2022/05/03 00:40:52;;;;;;;6.67;5.03;;;;;;;10.46;100.00;94934.56;5099465;28;20274;-59
2022/05/03 00:43:53;;;;;;;4.77;4.37;;;;;;;10.43;100.00;94940.06;5099969;28;20215;-57
2022/05/03 00:46:27;;;;;;;5.40;4.40;;;;;;;10.29;100.00;94937.53;5094958;28;20199;-58
2022/05/03 00:49:14;;;;;;;4.87;4.30;;;;;;;10.32;100.00;94934.75;5099279;28;20211;-69
2022/05/03 00:51:52;;;;;;;5.53;5.00;;;;;;;10.41;100.00;94934.25;5100151;28;20195;-63
2022/05/03 00:54:23;;;;;;;6.57;5.30;;;;;;;10.48;100.00;94936.88;5099303;28;20194;-65
2022/05/03 00:57:04;;;;;;;4.60;4.20;;;;;;;10.43;100.00;94934.59;5099219;28;20196;-63
2022/05/03 01:00:01;;;;;;;5.07;4.60;;;;;;;10.47;100.00;94935.31;5098987;28;20195;-64
2022/05/03 01:02:48;;;;;;;5.17;4.67;;;;;;;10.48;100.00;94936.88;5098906;28;20198;-64
2022/05/03 01:05:19;;;;;;;4.87;4.40;;;;;;;10.50;100.00;94934.50;5099687;28;20213;-60
2022/05/03 01:07:54;;;;;;;4.70;4.17;;;;;;;10.47;100.00;94927.13;5099325;28;20210;-58
2022/05/03 01:10:33;;;;;;;5.00;4.50;;;;;;;10.43;100.00;94932.66;5099291;28;20240;-60
2022/05/03 01:13:24;;;;;;;4.60;4.20;;;;;;;10.21;100.00;94927.91;5099217;28;20218;-60
2022/05/03 01:16:18;;;;;;;7.47;4.40;;;;;;;10.20;100.00;94926.38;5099026;28;20198;-60
2022/05/03 01:18:53;;;;;;;4.57;4.17;;;;;;;10.20;100.00;94918.19;5099456;28;20184;-60
2022/05/03 01:22:00;;;;;;;5.07;4.60;;;;;;;10.27;100.00;94920.81;5099187;28;20214;-59
2022/05/03 01:24:50;;;;;;;5.33;4.80;;;;;;;10.20;100.00;94920.91;5098781;28;20191;-69
2022/05/03 01:27:24;;;;;;;5.30;4.80;;;;;;;10.22;100.00;94924.00;5098628;28;20235;-60
2022/05/03 01:29:50;;;;;;;5.10;4.60;;;;;;;10.18;100.00;94915.88;5099488;28;20193;-60
2022/05/03 01:32:19;;;;;;;5.60;4.63;;;;;;;10.18;100.00;94920.53;5098804;28;20286;-61
2022/05/03 01:34:46;;;;;;;5.80;4.70;;;;;;;10.19;100.00;94920.13;5098548;28;20193;-61
2022/05/03 01:37:54;;;;;;;7.57;5.27;;;;;;;10.19;100.00;94924.84;5098954;28;20196;-60
2022/05/03 01:40:30;;;;;;;5.67;5.17;;;;;;;10.16;100.00;94925.66;5098122;28;20294;-60
2022/05/03 01:43:13;;;;;;;6.63;5.30;;;;;;;10.12;100.00;94917.50;5097441;28;20184;-62
2022/05/03 01:45:53;;;;;;;7.33;6.57;;;;;;;10.07;100.00;94918.75;5099104;28;20187;-64
2022/05/03 01:51:49;;;;;;;7.63;6.53;;;;;;;9.91;100.00;94918.53;5117155;28;20237;-65
2022/05/03 01:54:35;;;;;;;9.00;7.10;;;;;;;9.87;100.00;94917.81;5098511;28;20208;-64
2022/05/03 01:57:09;;;;;;;8.00;5.97;;;;;;;9.82;100.00;94918.28;5098685;28;20232;-65
2022/05/03 01:59:52;;;;;;;6.67;5.27;;;;;;;9.78;100.00;94912.09;5098813;28;20289;-64
2022/05/03 02:02:31;;;;;;;5.33;4.83;;;;;;;9.82;100.00;94910.09;5098404;28;20278;-58
2022/05/03 02:05:05;;;;;;;6.63;4.53;;;;;;;9.85;100.00;94912.00;5098716;28;20233;-65
2022/05/03 02:07:33;;;;;;;5.30;4.63;;;;;;;9.85;100.00;94912.00;5098443;28;20228;-64
2022/05/03 02:10:04;;;;;;;5.70;5.10;;;;;;;9.83;100.00;94914.38;5098069;28;20183;-64
2022/05/03 02:12:30;;;;;;;5.00;4.50;;;;;;;9.79;100.00;94913.66;5098477;28;20183;-64
2022/05/03 02:15:04;;;;;;;5.27;4.67;;;;;;;9.74;100.00;94911.38;5098212;28;20180;-63
2022/05/03 02:17:49;;;;;;;5.37;4.53;;;;;;;9.75;100.00;94907.47;5098444;28;20175;-64
2022/05/03 02:20:49;;;;;;;5.63;4.40;;;;;;;9.71;100.00;94914.13;5098076;28;20194;-58
2022/05/03 02:23:32;;;;;;;5.90;4.93;;;;;;;9.58;100.00;94908.47;5097714;28;20200;-58
2022/05/03 02:26:16;;;;;;;7.13;4.47;;;;;;;9.58;100.00;94905.72;5098339;28;20302;-58
2022/05/03 02:28:48;;;;;;;5.00;4.50;;;;;;;9.58;100.00;94913.91;5097546;28;20209;-58
2022/05/03 02:31:17;;;;;;;5.83;4.90;;;;;;;9.53;100.00;94916.31;5098189;28;20194;-58
2022/05/03 02:33:55;;;;;;;6.43;4.57;;;;;;;9.44;100.00;94913.31;5097623;28;20195;-59
2022/05/03 02:36:25;;;;;;;5.43;4.43;;;;;;;9.43;100.00;94923.44;5098059;28;20193;-58
2022/05/03 02:39:05;;;;;;;5.00;4.50;;;;;;;9.29;100.00;94922.84;5098114;28;20190;-59
2022/05/03 02:41:45;;;;;;;5.20;4.40;;;;;;;9.06;100.00;94917.22;5098095;28;20178;-61
2022/05/03 02:44:12;;;;;;;5.23;4.37;;;;;;;9.03;100.00;94918.81;5098302;28;20187;-61
2022/05/03 02:46:44;;;;;;;4.60;4.10;;;;;;;9.17;100.00;94915.16;5097335;28;20194;-61
2022/05/03 02:49:19;;;;;;;5.70;4.70;;;;;;;9.18;100.00;94912.03;5098054;28;20222;-61
2022/05/03 02:51:59;;;;;;;5.83;4.97;;;;;;;9.26;100.00;94908.06;5097641;28;20215;-61
2022/05/03 02:54:39;;;;;;;6.00;5.00;;;;;;;9.29;100.00;94915.41;5097460;28;20221;-61
2022/05/03 02:57:13;;;;;;;5.43;4.50;;;;;;;9.25;100.00;94922.84;5097772;28;20195;-61
2022/05/03 03:02:59;;;;;;;4.93;4.33;;;;;;;9.12;100.00;94921.84;5115762;28;20270;-64
2022/05/03 03:05:27;;;;;;;5.37;3.93;;;;;;;9.18;100.00;94928.38;5097230;28;20185;-64
2022/05/03 03:07:57;;;;;;;4.40;4.00;;;;;;;9.08;100.00;94918.38;5097499;28;20308;-64
2022/05/03 03:10:32;;;;;;;4.80;4.30;;;;;;;9.04;100.00;94928.53;5097439;28;20195;-64
2022/05/03 03:13:17;;;;;;;6.50;4.53;;;;;;;9.10;100.00;94926.13;5097305;28;20700;-66
2022/05/03 03:15:42;;;;;;;5.33;4.37;;;;;;;9.08;100.00;94918.38;5097359;28;20220;-66
2022/05/03 03:18:22;;;;;;;4.83;4.33;;;;;;;9.06;100.00;94914.50;5096963;28;20277;-60
2022/05/03 03:20:55;;;;;;;4.70;4.20;;;;;;;9.03;100.00;94921.53;5097173;28;20197;-60
2022/05/03 03:23:25;;;;;;;5.33;4.27;;;;;;;9.00;100.00;94916.88;5096900;28;20191;-61
2022/05/03 03:25:51;;;;;;;6.43;4.43;;;;;;;8.80;100.00;94913.22;5096841;28;20203;-61
2022/05/03 03:28:20;;;;;;;4.50;4.10;;;;;;;8.76;100.00;94917.13;5096831;28;20305;-61
2022/05/03 03:30:50;;;;;;;5.33;4.50;;;;;;;8.75;100.00;94921.78;5097284;28;20189;-61
2022/05/03 03:33:17;;;;;;;5.87;4.33;;;;;;;8.77;100.00;94922.19;5097337;28;20202;-59
2022/05/03 03:35:45;;;;;;;5.97;4.33;;;;;;;8.69;100.00;94926.16;5096699;28;20225;-65
2022/05/03 03:38:15;;;;;;;6.17;4.77;;;;;;;8.60;100.00;94925.81;5096898;28;20193;-64
2022/05/03 03:40:45;;;;;;;4.70;4.20;;;;;;;8.33;100.00;94922.16;5097054;28;20217;-64
2022/05/03 03:43:12;;;;;;;6.97;4.50;;;;;;;8.30;100.00;94928.41;5096631;28;20192;-64
2022/05/03 03:45:37;;;;;;;6.37;4.70;;;;;;;8.30;100.00;94925.66;5096634;28;20189;-64
2022/05/03 03:48:04;;;;;;;6.30;4.90;;;;;;;8.31;100.00;94934.63;5096895;28;20301;-64
2022/05/03 03:50:30;;;;;;;5.50;4.43;;;;;;;8.32;100.00;94936.94;5096880;28;20571;-63
2022/05/03 03:52:56;;;;;;;5.77;4.37;;;;;;;8.40;100.00;94932.22;5096661;28;20281;-59
2022/05/03 03:55:23;;;;;;;4.80;4.30;;;;;;;8.39;100.00;94936.88;5096531;28;20217;-65
2022/05/03 03:57:50;;;;;;;5.13;4.63;;;;;;;8.39;100.00;94936.88;5096571;28;20205;-65
2022/05/03 04:00:15;;;;;;;4.70;4.30;;;;;;;8.50;100.00;94934.88;5096100;28;20188;-65
2022/05/03 04:02:42;;;;;;;5.27;4.30;;;;;;;8.63;100.00;94929.72;5096596;28;20244;-65
2022/05/03 04:05:22;;;;;;;6.70;5.07;;;;;;;8.69;100.00;94937.03;5096275;28;20186;-65
2022/05/03 04:07:49;;;;;;;10.17;7.47;;;;;;;8.70;100.00;94935.84;5095806;28;20214;-64
2022/05/03 04:10:15;;;;;;;5.43;4.70;;;;;;;8.71;100.00;94934.66;5096258;28;20185;-57
2022/05/03 04:12:42;;;;;;;4.67;4.23;;;;;;;8.80;100.00;94940.44;5096313;28;20191;-61
2022/05/03 04:15:08;;;;;;;5.67;4.50;;;;;;;8.98;100.00;94946.50;5096052;28;20184;-60
2022/05/03 04:17:33;;;;;;;5.93;4.87;;;;;;;8.97;100.00;94934.06;5095973;28;20190;-60
2022/05/03 04:19:59;;;;;;;7.50;5.10;;;;;;;9.05;100.00;94942.91;5095838;28;20206;-62
2022/05/03 04:22:43;;;;;;;6.23;5.03;;;;;;;9.21;100.00;94946.66;5096072;28;20185;-60
2022/05/03 04:25:09;;;;;;;8.33;5.23;;;;;;;9.34;100.00;94944.19;5096612;28;20213;-60
2022/05/03 04:27:34;;;;;;;10.73;4.80;;;;;;;9.51;100.00;94956.84;5095791;28;20211;-58
2022/05/03 04:30:02;;;;;;;5.93;4.67;;;;;;;9.55;100.00;94952.88;5096517;28;20183;-59
2022/05/03 04:32:29;;;;;;;4.30;3.90;;;;;;;9.79;100.00;94951.81;5095904;28;20187;-61
2022/05/03 04:34:55;;;;;;;6.17;4.00;;;;;;;9.81;100.00;94960.34;5096300;28;20623;-60
2022/05/03 04:37:20;;;;;;;5.20;4.30;;;;;;;10.11;100.00;94956.88;5095775;28;20193;-60
2022/05/03 04:39:46;;;;;;;4.73;3.97;;;;;;;10.26;100.00;94962.94;5095861;28;20196;-60
2022/05/03 04:42:11;;;;;;;4.67;3.80;;;;;;;10.51;100.00;94966.06;5095746;28;20192;-60
2022/05/03 04:44:37;;;;;;;4.13;3.70;;;;;;;10.55;100.00;94980.41;5096459;28;20194;-60
2022/05/03 04:47:03;;;;;;;4.63;4.17;;;;;;;10.55;100.00;94975.75;5095801;28;20221;-59
2022/05/03 04:49:28;;;;;;;5.73;3.83;;;;;;;10.91;100.00;94989.63;5095594;28;20222;-63
2022/05/03 04:51:54;;;;;;;4.53;3.50;;;;;;;10.87;100.00;94992.41;5096020;28;20188;-63
2022/05/03 04:54:19;;;;;;;5.20;4.00;;;;;;;10.96;100.00;94989.16;5095678;28;20180;-63
2022/05/03 04:57:01;;;;;;;4.27;3.87;;;;;;;11.01;100.00;94996.88;5095535;28;20259;-63
2022/05/03 04:59:26;;;;;;;4.23;3.20;;;;;;;11.06;100.00;94999.13;5096180;28;20268;-65
2022/05/03 05:01:52;;;;;;;4.37;3.63;;;;;;;11.04;100.00;95005.00;5095850;28;20188;-64
2022/05/03 05:04:17;;;;;;;4.70;3.60;;;;;;;11.20;100.00;95004.34;5095569;28;20188;-58
2022/05/03 05:06:43;;;;;;;5.00;3.83;;;;;;;11.13;100.00;95005.25;5095616;28;20214;-64
2022/05/03 05:09:09;;;;;;;4.07;3.67;;;;;;;11.24;100.00;95005.06;5095078;28;20208;-63
2022/05/03 05:11:34;;;;;;;5.77;3.50;;;;;;;11.39;100.00;95003.63;5095815;28;20188;-63
2022/05/03 05:13:59;;;;;;;4.93;3.70;;;;;;;11.39;100.00;95011.81;5095439;28;20218;-63
2022/05/03 05:16:25;;;;;;;4.30;3.90;;;;;;;11.29;100.00;95010.06;5096039;28;20195;-64
2022/05/03 05:18:50;;;;;;;5.47;3.90;;;;;;;11.37;100.00;95006.78;5116292;28;20180;-64
2022/05/03 05:21:15;;;;;;;4.37;3.47;;;;;;;11.37;100.00;95008.75;5099158;28;20192;-64
2022/05/03 05:23:41;;;;;;;5.67;4.40;;;;;;;11.44;100.00;95019.56;5098491;28;20184;-59
2022/05/03 05:26:06;;;;;;;5.23;3.40;;;;;;;11.57;100.00;95013.06;5098767;28;20200;-57
2022/05/03 05:28:31;;;;;;;5.30;3.57;;;;;;;11.69;100.00;95022.66;5098645;28;20231;-57
2022/05/03 05:30:57;;;;;;;4.93;3.90;;;;;;;11.90;100.00;95019.50;5099092;28;20215;-57
2022/05/03 05:33:22;;;;;;;6.23;3.50;;;;;;;12.15;100.00;95019.78;5098955;28;20188;-58
2022/05/03 05:35:49;;;;;;;4.67;3.40;;;;;;;12.35;100.00;95017.81;5098586;28;20223;-52
2022/05/03 05:38:16;;;;;;;4.57;3.27;;;;;;;12.46;100.00;95024.59;5098473;28;20236;-56
2022/05/03 05:40:42;;;;;;;5.40;4.50;;;;;;;12.68;100.00;95024.94;5098523;28;20194;-60
2022/05/03 05:43:08;;;;;;;4.93;3.87;;;;;;;12.83;100.00;95020.66;5098561;28;20180;-59
2022/05/03 05:45:33;;;;;;;5.27;4.10;;;;;;;13.10;100.00;95029.44;5098228;28;20213;-62
2022/05/03 05:47:58;;;;;;;4.87;3.13;;;;;;;13.43;100.00;95025.50;5098304;28;20209;-62
2022/05/03 05:50:24;;;;;;;5.63;3.50;;;;;;;13.77;100.00;95028.50;5098469;28;20603;-63
2022/05/03 05:55:33;;;;;;;4.47;3.27;;;;;;;13.99;100.00;95043.22;5116495;28;20198;-63
2022/05/03 05:57:58;;;;;;;5.03;3.70;;;;;;;14.07;100.00;95036.34;5098344;28;20187;-62
2022/05/03 06:00:24;;;;;;;9.03;6.90;;;;;;;14.27;100.00;95039.72;5116328;28;20183;-59
2022/05/03 06:02:49;;;;;;;6.00;3.80;;;;;;;14.47;100.00;95056.06;5098183;28;20191;-57
2022/05/03 06:05:14;;;;;;;4.77;4.10;;;;;;;14.65;100.00;95054.34;5098097;28;20191;-57
2022/05/03 06:07:40;;;;;;;6.27;4.40;;;;;;;14.88;100.00;95056.78;5098007;28;20231;-58
2022/05/03 06:10:06;;;;;;;3.77;3.43;;;;;;;14.96;100.00;95062.81;5097951;28;20191;-56
2022/05/03 06:12:31;;;;;;;4.53;3.90;;;;;;;15.03;100.00;95068.13;5097720;28;20179;-58
2022/05/03 06:14:57;;;;;;;5.23;3.63;;;;;;;15.33;100.00;95059.28;5097895;28;20183;-57
2022/05/03 06:17:22;;;;;;;5.60;3.50;;;;;;;15.46;100.00;95063.63;5097826;28;20215;-59
2022/05/03 06:19:47;;;;;;;4.60;3.13;;;;;;;15.65;100.00;95065.34;5097480;28;20193;-61
2022/05/03 06:22:13;;;;;;;8.07;4.10;;;;;;;16.02;100.00;95066.47;5097475;28;20180;-59
2022/05/03 06:24:39;;;;;;;5.80;3.90;;;;;;;16.26;100.00;95071.13;5097502;28;20207;-59
2022/05/03 06:27:05;;;;;;;5.30;4.77;;;;;;;17.09;100.00;95070.44;5115765;28;20180;-60
2022/05/03 06:29:32;;;;;;;6.07;4.43;;;;;;;17.53;100.00;95069.13;5096542;28;20271;-59
2022/05/03 06:31:59;;;;;;;5.40;4.30;;;;;;;18.82;100.00;95071.84;5097907;28;20195;-59
2022/05/03 06:34:25;;;;;;;4.13;3.27;;;;;;;20.62;92.15;95089.63;5097411;28;20188;-60
2022/05/03 06:36:50;;;;;;;4.23;3.40;;;;;;;20.76;88.14;95096.44;5098081;28;20187;-58
2022/05/03 06:39:15;;;;;;;3.37;3.07;;;;;;;21.23;83.31;95091.50;5097463;28;20191;-63
2022/05/03 06:41:41;;;;;;;4.43;3.33;;;;;;;21.56;78.89;95103.16;5097420;28;20196;-63
2022/05/03 06:44:06;;;;;;;6.43;3.60;;;;;;;21.76;77.89;95094.91;5097745;28;20191;-63
2022/05/03 06:46:31;;;;;;;5.50;3.63;;;;;;;23.33;69.47;95089.53;5097811;28;20191;-64
2022/05/03 06:48:57;;;;;;;4.03;3.17;;;;;;;24.51;62.87;95094.16;5097332;28;20210;-64
2022/05/03 06:51:22;;;;;;;6.27;3.93;;;;;;;24.01;60.86;95103.53;5097832;28;20214;-64
2022/05/03 06:53:47;;;;;;;5.77;4.10;;;;;;;24.16;63.20;95104.13;5097256;28;20198;-64
2022/05/03 06:56:14;;;;;;;5.30;3.37;;;;;;;25.31;54.53;95101.03;5097190;28;20448;-60
2022/05/03 06:58:40;;;;;;;4.30;2.90;;;;;;;25.29;52.77;95109.19;5097234;28;20279;-57
2022/05/03 07:01:10;;;;;;;3.03;2.73;;;;;;;26.45;47.16;95095.91;5097640;28;20211;-58
2022/05/03 07:03:36;;;;;;;4.03;2.97;;;;;;;27.46;43.14;95104.13;5096859;28;20251;-58
2022/05/03 07:06:02;;;;;;;4.43;4.03;;;;;;;26.62;42.74;95110.63;5097496;28;20180;-58
2022/05/03 07:08:28;;;;;;;4.13;2.93;;;;;;;26.66;44.45;95111.13;5096934;28;20219;-58
2022/05/03 07:10:53;;;;;;;3.33;2.90;;;;;;;27.03;43.74;95105.91;5097094;28;20278;-58
2022/05/03 07:13:23;;;;;;;3.80;2.93;;;;;;;26.74;43.46;95114.94;5097044;28;20190;-59
2022/05/03 07:15:57;;;;;;;4.90;3.43;;;;;;;25.70;45.55;95118.63;5097064;28;20224;-73
2022/05/03 07:23:52;;;;;;;4.20;3.30;;;;;;;25.20;47.08;95114.97;5115413;28;20191;-59
2022/05/03 07:26:18;;;;;;;3.57;3.27;;;;;;;24.76;48.85;95117.63;5096475;28;20196;-57
2022/05/03 07:28:43;;;;;;;4.30;3.83;;;;;;;24.00;50.86;95110.38;5096804;28;20195;-57
2022/05/03 07:31:09;;;;;;;3.37;3.07;;;;;;;26.44;44.79;95099.97;5096744;28;20233;-71
2022/05/03 07:33:35;;;;;;;3.80;3.50;;;;;;;27.47;41.25;95099.28;5097007;28;20183;-60
2022/05/03 07:36:00;;;;;;;4.40;3.63;;;;;;;28.63;37.31;95103.88;5096465;28;20601;-72
2022/05/03 07:38:26;;;;;;;3.80;3.07;;;;;;;29.30;35.63;95113.00;5114806;28;20266;-72
2022/05/03 07:40:51;;;;;;;3.85;3.42;;;;;;;29.43;35.20;95111.03;5095777;28;20180;-70
2022/05/03 07:43:17;;;;;;;3.50;3.20;;;;;;;29.42;35.19;95108.75;5096762;28;20229;-71
2022/05/03 07:45:42;;;;;;;3.90;3.28;;;;;;;29.45;34.83;95107.66;5096404;28;20180;-72
2022/05/03 07:48:08;;;;;;;4.88;3.00;;;;;;;30.46;34.02;95104.25;5096767;28;20208;-69
2022/05/03 07:50:33;;;;;;;3.13;2.85;;;;;;;31.57;31.26;95111.22;5096827;28;20176;-60
2022/05/03 07:52:58;;;;;;;5.32;3.63;;;;;;;32.26;31.29;95111.34;5096156;28;20187;-63
2022/05/03 07:55:24;;;;;;;3.63;3.17;;;;;;;33.61;29.20;95112.22;5096171;28;20176;-63
2022/05/03 07:57:50;;;;;;;4.45;4.05;;;;;;;34.05;27.73;95103.66;5096333;28;20570;-63
2022/05/03 08:00:15;;;;;;;3.30;2.92;;;;;;;33.97;27.47;95105.72;5096959;28;20239;-62
2022/05/03 08:02:41;;;;;;;3.30;3.00;;;;;;;33.45;27.63;95110.66;5096468;28;20209;-62
2022/05/03 08:05:08;;;;;;;4.97;3.10;;;;;;;32.14;29.47;95104.47;5096355;28;20198;-62
2022/05/03 08:07:35;;;;;;;6.55;5.95;;;;;;;31.08;30.51;95107.41;5096797;28;20568;-62
2022/05/03 08:10:01;;;;;;;8.30;7.60;;;;;;;31.07;31.76;95106.63;5096192;28;20180;-60
2022/05/03 08:12:26;;;;;;;2.85;2.65;;;;;;;30.21;32.50;95113.41;5096285;28;20186;-62
2022/05/03 08:14:52;;;;;;;5.10;3.25;;;;;;;29.55;33.93;95114.44;5096036;28;20205;-62
2022/05/03 08:17:17;;;;;;;3.38;3.08;;;;;;;31.76;31.29;95108.22;5095625;28;20183;-62
2022/05/03 08:19:42;;;;;;;3.20;2.90;;;;;;;32.85;29.39;95115.97;5096132;28;20207;-61
2022/05/03 08:22:08;;;;;;;3.03;2.78;;;;;;;33.92;28.32;95113.06;5096118;28;20198;-62
2022/05/03 08:24:33;;;;;;;2.92;2.70;;;;;;;32.05;29.21;95113.44;5095885;28;20217;-62
2022/05/03 08:26:59;;;;;;;4.10;3.70;;;;;;;32.73;29.54;95119.66;5096254;28;20176;-62
2022/05/03 08:29:27;;;;;;;3.88;3.20;;;;;;;32.79;28.27;95117.44;5095830;28;20180;-62
2022/05/03 08:31:52;;;;;;;4.03;3.72;;;;;;;31.99;29.11;95126.94;5095796;28;20179;-58
2022/05/03 08:34:18;;;;;;;3.30;3.00;;;;;;;32.03;29.64;95116.06;5096206;28;20172;-59
2022/05/03 08:42:01;;;;;;;5.50;3.17;;;;;;;32.31;28.40;95118.97;5095857;28;20243;-59
2022/05/03 08:42:15;;;;;;;4.43;2.90;;;;;;;32.48;29.06;95122.13;5114059;28;20194;-59
2022/05/03 08:44:40;;;;;;;3.78;3.10;;;;;;;32.55;29.31;95121.41;5095570;28;20191;-62
2022/05/03 08:47:06;;;;;;;5.68;4.30;;;;;;;33.09;27.92;95123.28;5095835;28;20196;-59
2022/05/03 08:49:54;;;;;;;3.83;3.25;;;;;;;33.03;27.73;95117.06;5095799;28;20294;-59
2022/05/03 08:52:21;;;;;;;12.30;11.10;;;;;;;32.39;28.38;95122.63;5096402;28;20191;-59
2022/05/03 08:54:47;;;;;;;3.33;3.13;;;;;;;31.38;29.02;95124.00;5099534;28;20175;-60
2022/05/03 08:57:13;;;;;;;5.55;4.15;;;;;;;31.39;29.59;95126.25;5099430;28;20274;-59
2022/05/03 08:59:38;;;;;;;4.45;3.70;;;;;;;32.49;28.91;95118.00;5098857;28;20203;-59
2022/05/03 09:02:04;;;;;;;3.80;2.90;;;;;;;32.77;27.77;95112.31;5099011;28;20191;-59
2022/05/03 09:04:30;;;;;;;3.58;3.28;;;;;;;32.49;28.17;95111.56;5099616;28;20192;-51
2022/05/03 09:06:55;;;;;;;3.83;3.08;;;;;;;32.05;28.09;95107.78;5099030;28;20282;-59
2022/05/03 09:09:21;;;;;;;4.20;2.60;;;;;;;32.40;27.90;95114.88;5098872;28;20187;-59
2022/05/03 09:11:49;;;;;;;3.47;2.95;;;;;;;32.97;28.17;95108.72;5099089;28;20223;-59
2022/05/03 09:14:37;;;;;;;9.90;8.90;;;;;;;32.64;28.25;95117.34;5098935;28;20323;-59
2022/05/03 09:17:03;;;;;;;7.15;6.55;;;;;;;33.67;27.52;95109.22;5117148;28;20184;-60
2022/05/03 09:19:29;;;;;;;6.68;6.07;;;;;;;34.02;26.27;95122.56;5098734;28;20200;-60
2022/05/03 09:24:58;;;;;;;6.30;5.80;;;;;;;32.08;28.48;95106.66;5117167;28;20214;-62
2022/05/03 09:27:25;;;;;;;8.40;7.60;;;;;;;30.68;30.22;95114.34;5098638;28;20184;-61
2022/05/03 09:30:08;;;;;;;5.72;4.90;;;;;;;28.75;33.70;95119.31;5098972;28;20183;-61
2022/05/03 09:32:38;;;;;;;13.77;5.40;;;;;;;26.53;38.46;95127.72;5098363;28;20172;-60
2022/05/03 09:35:05;;;;;;;5.50;5.00;;;;;;;25.78;42.05;95130.84;5098800;28;20188;-60
2022/05/03 09:37:43;;;;;;;5.25;4.60;;;;;;;25.66;44.09;95120.91;5082006;28;20211;-60
2022/05/03 09:40:10;;;;;;;5.63;5.10;;;;;;;24.56;48.94;95121.34;5098961;28;20172;-58
2022/05/03 09:42:36;;;;;;;6.57;4.97;;;;;;;26.56;44.03;95115.50;5099100;28;20195;-59
2022/05/03 09:45:04;;;;;;;5.33;4.80;;;;;;;27.99;39.91;95099.91;5098617;28;20180;-58
2022/05/03 09:47:33;;;;;;;5.40;4.90;;;;;;;28.31;38.08;95103.69;5098450;28;20184;-58
2022/05/03 09:49:59;;;;;;;6.43;5.13;;;;;;;28.77;37.58;95105.50;5098063;28;20270;-59
2022/05/03 09:52:29;;;;;;;5.83;5.13;;;;;;;26.50;42.09;95109.13;5099008;28;20191;-59
2022/05/03 09:55:08;;;;;;;6.63;4.77;;;;;;;25.13;47.56;95102.25;5098212;28;20245;-59
2022/05/03 09:57:41;;;;;;;5.83;5.33;;;;;;;24.30;49.76;95108.78;5098862;28;20198;-59
2022/05/03 10:00:09;;;;;;;6.40;5.23;;;;;;;23.38;54.69;95107.56;5098638;28;20648;-70
2022/05/03 10:02:37;;;;;;;6.10;5.10;;;;;;;24.02;53.43;95102.25;5098080;28;20200;-61
2022/05/03 10:05:02;;;;;;;5.87;5.37;;;;;;;22.15;60.67;95114.94;5097351;28;20282;-60
2022/05/03 10:07:29;;;;;;;5.40;4.90;;;;;;;22.40;60.23;95103.91;5098303;28;20609;-60
2022/05/03 10:09:54;;;;;;;4.90;4.27;;;;;;;23.15;54.94;95095.41;5098417;28;20184;-60
2022/05/03 10:12:20;;;;;;;4.43;4.00;;;;;;;22.97;55.65;95106.09;5098246;28;20190;-60
2022/05/03 10:14:47;;;;;;;5.47;4.17;;;;;;;24.03;51.10;95100.97;5097974;28;20187;-61
2022/05/03 10:22:54;;;;;;;5.50;4.53;;;;;;;22.41;54.72;95107.47;5116281;28;20225;-58
2022/05/03 10:25:41;;;;;;;5.17;4.30;;;;;;;22.39;58.62;95099.59;5097690;28;20211;-58
2022/05/03 10:28:07;;;;;;;5.23;4.43;;;;;;;22.39;57.91;95096.81;5097854;28;20187;-59
2022/05/03 10:30:34;;;;;;;4.87;4.30;;;;;;;22.27;57.51;95099.94;5097823;28;20200;-59
2022/05/03 10:33:23;;;;;;;5.17;4.47;;;;;;;22.77;57.09;95086.66;5097362;28;20245;-58
2022/05/03 10:35:49;;;;;;;4.73;4.23;;;;;;;22.92;57.18;95095.66;5097695;28;20215;-56
2022/05/03 10:38:15;;;;;;;4.30;3.90;;;;;;;22.72;56.72;95085.31;5097486;28;20203;-59
2022/05/03 10:40:43;;;;;;;9.37;7.00;;;;;;;22.71;56.65;95083.03;5097527;28;20257;-57
2022/05/03 10:43:14;;;;;;;4.10;3.70;;;;;;;22.89;55.78;95088.28;5097790;28;20191;-54
2022/05/03 10:46:08;;;;;;;4.43;3.93;;;;;;;25.09;47.32;95089.78;5097903;28;20712;-56
2022/05/03 10:48:34;;;;;;;4.37;3.97;;;;;;;24.73;45.48;95085.13;5097661;28;20196;-57
2022/05/03 10:51:07;;;;;;;5.47;3.90;;;;;;;24.61;47.51;95084.28;5097342;28;20184;-56
2022/05/03 10:53:38;;;;;;;5.43;4.30;;;;;;;24.58;46.90;95084.53;5115674;28;20171;-57
2022/05/03 10:56:16;;;;;;;5.43;4.07;;;;;;;24.52;48.05;95080.97;5097443;28;20214;-61
2022/05/03 10:59:02;;;;;;;4.90;3.83;;;;;;;24.87;47.13;95075.75;5097730;28;20234;-63
2022/05/03 11:01:27;;;;;;;4.00;3.67;;;;;;;28.17;39.42;95071.13;5097262;28;20196;-63
2022/05/03 11:03:57;;;;;;;4.40;3.70;;;;;;;29.18;35.94;95067.41;5097037;28;20191;-62
2022/05/03 11:06:23;;;;;;;5.17;3.97;;;;;;;27.57;38.39;95069.59;5097315;28;20198;-62
2022/05/03 11:11:39;;;;;;;6.47;4.33;;;;;;;23.86;52.67;95069.41;5115136;28;20206;-62
2022/05/03 11:14:11;;;;;;;5.17;4.73;;;;;;;22.62;59.06;95058.13;5097014;28;20214;-63
2022/05/03 11:16:36;;;;;;;5.60;5.10;;;;;;;24.20;52.73;95051.59;5096959;28;20191;-57
2022/05/03 11:19:16;;;;;;;5.43;4.93;;;;;;;25.86;47.36;95056.31;5096773;28;20215;-57
2022/05/03 11:21:42;;;;;;;6.07;5.40;;;;;;;27.04;43.13;95056.16;5097532;28;20244;-58
2022/05/03 11:24:24;;;;;;;5.60;5.10;;;;;;;26.31;43.46;95059.78;5096686;28;20194;-58
2022/05/03 11:26:55;;;;;;;5.70;5.10;;;;;;;28.11;39.84;95047.94;5096517;28;20187;-57
2022/05/03 11:29:21;;;;;;;5.47;4.97;;;;;;;28.75;37.36;95051.81;5096720;28;20195;-57
2022/05/03 11:31:48;;;;;;;5.40;4.90;;;;;;;28.81;36.85;95055.34;5096839;28;20188;-59
2022/05/03 11:34:13;;;;;;;5.35;4.85;;;;;;;28.77;37.01;95040.81;5096561;28;20190;-60
2022/05/03 11:36:42;;;;;;;5.10;4.47;;;;;;;26.19;40.85;95045.06;5096835;28;20183;-61
2022/05/03 11:39:09;;;;;;;5.55;5.00;;;;;;;25.07;43.68;95037.22;5096822;28;20557;-62
2022/05/03 11:41:37;;;;;;;6.70;6.10;;;;;;;24.95;45.38;95035.63;5096578;28;20219;-60
2022/05/03 11:44:02;;;;;;;4.97;4.47;;;;;;;24.23;46.71;95031.84;5096267;28;20176;-60
2022/05/03 11:46:28;;;;;;;6.73;5.80;;;;;;;23.99;48.39;95030.69;5097177;28;20184;-62
2022/05/03 11:49:10;;;;;;;6.10;5.27;;;;;;;24.38;48.26;95042.81;5096668;28;20566;-61
2022/05/03 11:57:12;;;;;;;4.90;4.50;;;;;;;24.14;48.46;95034.06;5115046;28;20191;-61
2022/05/03 11:59:45;;;;;;;7.80;7.00;;;;;;;24.12;49.70;95026.22;5096455;28;20219;-60
2022/05/03 12:02:21;;;;;;;4.77;4.37;;;;;;;24.29;50.64;95013.06;5096230;28;20205;-61
2022/05/03 12:05:06;;;;;;;8.77;7.33;;;;;;;23.71;59.06;95021.38;5096495;28;20188;-60
2022/05/03 12:07:35;;;;;;;8.07;7.23;;;;;;;23.12;61.27;95034.34;5096582;28;20188;-61
2022/05/03 12:10:00;;;;;;;9.53;7.57;;;;;;;22.37;67.91;95021.38;5096372;28;20180;-69
2022/05/03 12:12:45;;;;;;;10.47;7.53;;;;;;;22.24;67.57;95023.75;5096377;28;20664;-60
2022/05/03 12:15:14;;;;;;;8.70;7.30;;;;;;;22.30;66.30;95021.03;5096488;28;20184;-61
2022/05/03 12:18:01;;;;;;;7.43;6.30;;;;;;;21.93;67.42;95020.81;5096321;28;20198;-60
2022/05/03 12:20:39;;;;;;;7.43;6.63;;;;;;;21.40;67.28;95017.53;5096052;28;20248;-60